createdAt,value
2023-02-21T00:01:58.049Z,1.70
2023-02-21T00:04:43.176Z,1.30
2023-02-21T00:07:28.509Z,1.40
2023-02-21T00:10:13.737Z,1.53
2023-02-21T00:12:59.103Z,1.50
2023-02-21T00:15:45.775Z,1.50
2023-02-21T00:18:31.091Z,1.70
2023-02-21T00:21:16.441Z,1.60
2023-02-21T00:24:01.727Z,1.50
2023-02-21T00:26:47.023Z,1.40
2023-02-21T00:29:32.526Z,1.87
2023-02-21T00:32:19.069Z,1.50
2023-02-21T00:35:04.237Z,1.40
2023-02-21T00:37:49.488Z,1.50
2023-02-21T00:40:34.898Z,1.50
2023-02-21T00:43:20.193Z,1.50
2023-02-21T00:46:05.614Z,1.27
2023-02-21T00:48:52.222Z,1.60
2023-02-21T00:51:37.471Z,1.40
2023-02-21T00:54:22.699Z,1.10
2023-02-21T00:57:08.248Z,1.40
2023-02-21T00:59:53.576Z,1.20
2023-02-21T01:02:39.094Z,1.23
2023-02-21T01:05:26.531Z,1.30
2023-02-21T01:08:11.913Z,1.30
2023-02-21T01:10:57.299Z,1.30
2023-02-21T01:13:42.472Z,1.20
2023-02-21T01:16:27.833Z,1.37
2023-02-21T01:19:13.130Z,1.50
2023-02-21T01:21:59.776Z,1.30
2023-02-21T01:24:45.229Z,1.27
2023-02-21T01:27:30.431Z,1.10
2023-02-21T01:30:15.873Z,1.17
2023-02-21T01:33:01.161Z,1.50
2023-02-21T01:35:46.584Z,1.40
2023-02-21T01:38:33.092Z,1.10
2023-02-21T01:41:18.371Z,1.40
2023-02-21T01:44:18.112Z,1.20
2023-02-21T01:47:03.339Z,1.13
2023-02-21T01:49:52.055Z,1.10
2023-02-21T01:52:37.272Z,1.20
2023-02-21T01:55:26.254Z,1.10
2023-02-21T01:58:13.182Z,1.77
2023-02-21T02:00:58.463Z,1.27
2023-02-21T02:03:44.701Z,1.30
2023-02-21T02:06:34.934Z,1.60
2023-02-21T02:09:32.932Z,1.20
2023-02-21T02:12:24.142Z,1.17
2023-02-21T02:15:23.215Z,1.27
2023-02-21T02:18:10.655Z,1.30
2023-02-21T02:21:16.466Z,1.43
2023-02-21T02:24:36.404Z,1.07
2023-02-21T02:27:45.815Z,1.13
2023-02-21T02:30:46.892Z,1.20
2023-02-21T02:33:53.403Z,1.30
2023-02-21T02:36:25.461Z,1.20
2023-02-21T02:39:03.552Z,1.17
2023-02-21T02:41:47.495Z,1.00
2023-02-21T02:44:20.409Z,1.10
2023-02-21T02:46:51.055Z,1.13
2023-02-21T02:49:21.608Z,1.10
2023-02-21T02:51:51.738Z,1.07
2023-02-21T02:54:19.644Z,1.00
2023-02-21T02:56:48.129Z,1.17
2023-02-21T02:59:21.490Z,1.20
2023-02-21T03:02:20.955Z,1.10
2023-02-21T03:05:08.511Z,1.23
2023-02-21T03:07:47.178Z,1.10
2023-02-21T03:10:22.093Z,1.00
2023-02-21T03:12:56.570Z,1.30
2023-02-21T03:15:28.413Z,1.10
2023-02-21T03:18:02.135Z,1.20
2023-02-21T03:20:30.649Z,1.20
2023-02-21T03:23:01.785Z,1.10
2023-02-21T03:25:31.745Z,0.93
2023-02-21T03:28:01.993Z,1.10
2023-02-21T03:30:30.619Z,1.07
2023-02-21T03:32:58.835Z,1.20
2023-02-21T03:35:30.370Z,1.00
2023-02-21T03:38:00.043Z,1.10
2023-02-21T03:40:30.238Z,1.03
2023-02-21T03:42:59.721Z,0.90
2023-02-21T03:45:27.446Z,1.20
2023-02-21T03:47:55.025Z,1.10
2023-02-21T03:50:22.619Z,1.00
2023-02-21T03:52:50.252Z,1.00
2023-02-21T03:55:19.659Z,1.10
2023-02-21T03:57:47.370Z,0.87
2023-02-21T04:00:16.033Z,0.90
2023-02-21T04:02:43.711Z,1.30
2023-02-21T04:05:11.408Z,1.00
2023-02-21T04:07:40.241Z,0.97
2023-02-21T04:10:08.009Z,1.10
2023-02-21T04:12:36.933Z,0.97
2023-02-21T04:15:04.758Z,0.87
2023-02-21T04:17:32.385Z,0.87
2023-02-21T04:19:59.996Z,1.10
2023-02-21T04:22:27.596Z,0.90
2023-02-21T04:24:55.236Z,1.10
2023-02-21T04:27:22.894Z,0.90
2023-02-21T04:29:52.135Z,0.90
2023-02-21T04:32:19.873Z,1.03
2023-02-21T04:34:47.637Z,1.00
2023-02-21T04:37:15.547Z,1.00
2023-02-21T04:39:43.162Z,1.20
2023-02-21T04:42:10.850Z,0.97
2023-02-21T04:44:40.292Z,0.87
2023-02-21T04:47:10.525Z,1.07
2023-02-21T04:49:38.115Z,0.87
2023-02-21T04:52:05.953Z,0.90
2023-02-21T04:54:33.574Z,1.00
2023-02-21T04:57:01.203Z,1.10
2023-02-21T04:59:28.762Z,0.90
2023-02-21T05:01:56.402Z,0.90
2023-02-21T05:04:25.356Z,0.90
2023-02-21T05:06:52.936Z,0.87
2023-02-21T05:09:20.607Z,0.90
2023-02-21T05:11:48.189Z,0.90
2023-02-21T05:14:17.786Z,0.93
2023-02-21T05:16:45.505Z,1.23
2023-02-21T05:19:13.411Z,0.90
2023-02-21T05:21:42.378Z,1.00
2023-02-21T05:24:09.986Z,0.80
2023-02-21T05:26:39.561Z,1.00
2023-02-21T05:29:07.189Z,0.80
2023-02-21T05:31:34.854Z,0.90
2023-02-21T05:34:02.454Z,1.10
2023-02-21T05:36:30.073Z,0.90
2023-02-21T05:38:59.359Z,0.83
2023-02-21T05:41:27.153Z,1.00
2023-02-21T05:43:54.908Z,0.80
2023-02-21T05:46:26.218Z,0.90
2023-02-21T05:48:54.538Z,0.80
2023-02-21T05:51:22.680Z,0.80
2023-02-21T05:53:50.855Z,0.80
2023-02-21T05:56:21.120Z,0.87
2023-02-21T05:58:49.192Z,1.00
2023-02-21T06:01:17.407Z,0.80
2023-02-21T06:03:45.216Z,0.83
2023-02-21T06:06:12.905Z,0.70
2023-02-21T06:08:45.112Z,0.80
2023-02-21T06:11:13.813Z,0.80
2023-02-21T06:13:43.325Z,0.83
2023-02-21T06:16:10.979Z,0.60
2023-02-21T06:18:38.644Z,0.87
2023-02-21T06:21:06.672Z,0.77
2023-02-21T06:23:34.266Z,0.90
2023-02-21T06:26:01.886Z,0.80
2023-02-21T06:28:30.553Z,0.80
2023-02-21T06:30:59.606Z,0.80
2023-02-21T06:33:27.279Z,0.83
2023-02-21T06:35:54.881Z,0.90
2023-02-21T06:38:22.571Z,0.77
2023-02-21T06:40:50.509Z,0.70
2023-02-21T06:43:18.110Z,0.80
2023-02-21T06:45:45.709Z,0.90
2023-02-21T06:48:17.342Z,0.80
2023-02-21T06:50:45.123Z,0.90
2023-02-21T06:53:12.717Z,0.93
2023-02-21T06:55:40.391Z,0.80
2023-02-21T06:58:08.018Z,0.80
2023-02-21T07:00:35.715Z,0.90
2023-02-21T07:03:03.386Z,0.83
2023-02-21T07:05:34.617Z,0.90
2023-02-21T07:08:02.949Z,0.90
2023-02-21T07:10:31.212Z,0.80
2023-02-21T07:12:58.850Z,0.90
2023-02-21T07:15:27.026Z,0.90
2023-02-21T07:17:54.623Z,0.73
2023-02-21T07:20:22.212Z,0.80
2023-02-21T07:22:51.212Z,0.80
2023-02-21T07:25:21.070Z,0.93
2023-02-21T07:27:49.348Z,0.77
2023-02-21T07:30:18.294Z,0.77
2023-02-21T07:32:48.842Z,1.17
2023-02-21T07:35:16.484Z,0.80
2023-02-21T07:37:44.115Z,0.80
2023-02-21T07:40:13.342Z,0.70
2023-02-21T07:42:43.947Z,0.80
2023-02-21T07:45:12.125Z,0.90
2023-02-21T07:47:39.908Z,0.70
2023-02-21T07:50:07.978Z,0.70
2023-02-21T07:52:35.576Z,0.70
2023-02-21T07:55:03.347Z,0.90
2023-02-21T07:57:32.290Z,0.80
2023-02-21T07:59:59.899Z,0.70
2023-02-21T08:02:27.490Z,0.80
2023-02-21T08:04:55.159Z,0.67
2023-02-21T08:07:22.856Z,1.00
2023-02-21T08:09:50.458Z,0.67
2023-02-21T08:12:18.231Z,0.80
2023-02-21T08:14:47.390Z,0.80
2023-02-21T08:17:15.165Z,0.80
2023-02-21T08:19:42.796Z,0.60
2023-02-21T08:22:10.374Z,0.77
2023-02-21T08:24:38.012Z,0.80
2023-02-21T08:27:05.625Z,0.60
2023-02-21T08:29:33.232Z,0.80
2023-02-21T08:32:02.253Z,0.80
2023-02-21T08:34:30.169Z,0.70
2023-02-21T08:36:57.804Z,0.90
2023-02-21T08:39:25.463Z,0.60
2023-02-21T08:41:53.404Z,0.67
2023-02-21T08:44:22.655Z,0.80
2023-02-21T08:46:50.320Z,1.00
2023-02-21T08:49:19.309Z,1.00
2023-02-21T08:51:47.550Z,0.70
2023-02-21T08:54:15.233Z,0.80
2023-02-21T08:56:42.802Z,0.70
2023-02-21T08:59:10.716Z,0.87
2023-02-21T09:01:38.436Z,0.90
2023-02-21T09:04:06.771Z,0.87
2023-02-21T09:06:35.739Z,0.77
2023-02-21T09:09:03.727Z,1.00
2023-02-21T09:11:31.318Z,0.87
2023-02-21T09:13:58.979Z,1.00
2023-02-21T09:16:26.620Z,1.00
2023-02-21T09:18:56.779Z,1.00
2023-02-21T09:21:24.442Z,0.87
2023-02-21T09:23:59.297Z,0.80
2023-02-21T09:26:32.022Z,0.80
2023-02-21T09:28:59.660Z,0.77
2023-02-21T09:31:27.488Z,0.73
2023-02-21T09:33:55.862Z,0.83
2023-02-21T09:36:24.194Z,1.13
2023-02-21T09:38:52.276Z,0.80
2023-02-21T09:41:21.726Z,0.80
2023-02-21T09:43:52.455Z,0.87
2023-02-21T09:46:29.903Z,0.80
2023-02-21T09:48:57.885Z,1.00
2023-02-21T09:51:26.094Z,1.00
2023-02-21T09:53:57.276Z,0.67
2023-02-21T09:56:30.857Z,0.70
2023-02-21T09:58:59.563Z,0.87
2023-02-21T10:01:52.339Z,0.90
2023-02-21T10:04:30.877Z,0.80
2023-02-21T10:07:03.463Z,0.90
2023-02-21T10:09:43.396Z,0.70
2023-02-21T10:12:22.135Z,0.90
2023-02-21T10:15:10.376Z,0.80
2023-02-21T10:17:44.146Z,1.00
2023-02-21T10:20:16.223Z,0.70
2023-02-21T10:22:47.949Z,1.10
2023-02-21T10:25:23.506Z,0.83
2023-02-21T10:27:54.407Z,0.90
2023-02-21T10:30:30.474Z,0.80
2023-02-21T10:32:58.298Z,0.80
2023-02-21T10:35:26.365Z,0.80
2023-02-21T10:37:57.600Z,0.77
2023-02-21T10:40:31.767Z,1.03
2023-02-21T10:43:07.911Z,0.60
2023-02-21T10:45:40.471Z,0.90
2023-02-21T10:48:10.007Z,1.00
2023-02-21T10:50:44.747Z,0.80
2023-02-21T10:53:26.430Z,0.80
2023-02-21T10:56:29.717Z,0.90
2023-02-21T10:59:02.041Z,0.80
2023-02-21T11:01:42.915Z,0.90
2023-02-21T11:04:27.182Z,0.73
2023-02-21T11:06:57.266Z,0.80
2023-02-21T11:09:32.625Z,0.77
2023-02-21T11:12:06.783Z,0.90
2023-02-21T11:14:36.441Z,0.97
2023-02-21T11:17:14.167Z,0.97
2023-02-21T11:19:51.009Z,0.90
2023-02-21T11:22:21.708Z,0.80
2023-02-21T11:24:59.633Z,0.90
2023-02-21T11:27:29.375Z,0.83
2023-02-21T11:29:59.126Z,1.00
2023-02-21T11:32:30.628Z,0.93
2023-02-21T11:35:04.234Z,0.80
2023-02-21T11:37:32.935Z,0.90
2023-02-21T11:40:01.981Z,0.93
2023-02-21T11:42:32.885Z,0.90
2023-02-21T11:45:14.734Z,0.80
2023-02-21T11:47:48.022Z,0.70
2023-02-21T11:50:23.150Z,0.80
2023-02-21T11:52:55.302Z,1.10
2023-02-21T11:55:26.371Z,0.80
2023-02-21T11:58:06.200Z,0.77
2023-02-21T12:00:43.336Z,1.17
2023-02-21T12:03:35.997Z,0.93
2023-02-21T12:06:07.908Z,0.93
2023-02-21T12:08:49.044Z,1.00
2023-02-21T12:11:51.881Z,0.90
2023-02-21T12:14:36.385Z,0.80
2023-02-21T12:17:15.282Z,0.70
2023-02-21T12:20:08.925Z,0.77
2023-02-21T12:22:53.575Z,0.80
2023-02-21T12:25:28.704Z,0.83
2023-02-21T12:28:02.324Z,0.80
2023-02-21T12:30:44.984Z,1.00
2023-02-21T12:33:27.078Z,0.90
2023-02-21T12:36:15.569Z,0.87
2023-02-21T12:38:54.574Z,0.80
2023-02-21T12:41:35.411Z,0.80
2023-02-21T12:44:14.674Z,0.73
2023-02-21T12:46:49.830Z,0.80
2023-02-21T12:49:23.478Z,0.80
2023-02-21T12:51:58.319Z,1.00
2023-02-21T12:54:38.477Z,1.00
2023-02-21T12:57:11.295Z,0.87
2023-02-21T12:59:52.266Z,0.80
2023-02-21T13:02:27.495Z,0.90
2023-02-21T13:05:00.204Z,1.00
2023-02-21T13:07:36.989Z,0.87
2023-02-21T13:10:08.512Z,1.00
2023-02-21T13:12:41.813Z,0.80
2023-02-21T13:15:18.862Z,0.67
2023-02-21T13:17:53.025Z,0.53
2023-02-21T13:20:25.423Z,0.63
2023-02-21T13:23:51.027Z,0.80
2023-02-21T13:26:51.987Z,0.87
2023-02-21T13:29:23.795Z,0.77
2023-02-21T13:32:00.321Z,0.73
2023-02-21T13:34:30.591Z,0.70
2023-02-21T13:37:06.335Z,0.70
2023-02-21T13:39:37.591Z,0.70
2023-02-21T13:42:09.342Z,0.70
2023-02-21T13:44:41.497Z,0.70
2023-02-21T13:47:15.592Z,0.60
2023-02-21T13:49:51.687Z,0.70
2023-02-21T13:52:51.114Z,0.77
2023-02-21T13:55:31.359Z,0.80
2023-02-21T13:58:25.094Z,0.80
2023-02-21T14:00:55.909Z,0.50
2023-02-21T14:03:34.944Z,0.80
2023-02-21T14:06:29.470Z,0.70
2023-02-21T14:09:01.272Z,0.77
2023-02-21T14:11:32.193Z,0.50
2023-02-21T14:14:03.172Z,0.60
2023-02-21T14:16:35.187Z,0.70
2023-02-21T14:19:07.250Z,0.53
2023-02-21T14:21:37.610Z,0.73
2023-02-21T14:24:14.324Z,0.70
2023-02-21T14:26:45.879Z,0.40
2023-02-21T14:29:30.905Z,0.50
2023-02-21T14:32:17.549Z,0.53
2023-02-21T14:34:56.060Z,0.57
2023-02-21T14:37:29.036Z,0.60
2023-02-21T14:40:01.095Z,0.40
2023-02-21T14:42:42.733Z,0.40
2023-02-21T14:45:38.340Z,0.70
2023-02-21T14:48:20.072Z,0.50
2023-02-21T14:51:08.550Z,0.50
2023-02-21T14:54:07.623Z,0.50
2023-02-21T14:57:09.061Z,0.53
2023-02-21T14:59:53.938Z,0.60
2023-02-21T15:02:30.323Z,0.50
2023-02-21T15:05:06.831Z,0.60
2023-02-21T15:07:40.617Z,0.50
2023-02-21T15:10:15.702Z,0.80
2023-02-21T15:12:48.250Z,0.67
2023-02-21T15:15:19.407Z,0.60
2023-02-21T15:17:56.953Z,0.60
2023-02-21T15:20:24.599Z,0.50
2023-02-21T15:23:02.687Z,0.80
2023-02-21T15:25:30.321Z,0.50
2023-02-21T15:28:07.309Z,0.50
2023-02-21T15:30:38.081Z,0.70
2023-02-21T15:33:17.665Z,0.70
2023-02-21T15:35:51.137Z,0.60
2023-02-21T15:38:24.162Z,0.73
2023-02-21T15:40:57.161Z,0.43
2023-02-21T15:43:34.898Z,0.50
2023-02-21T15:46:09.057Z,0.67
2023-02-21T15:48:36.944Z,0.57
2023-02-21T15:51:10.396Z,0.50
2023-02-21T15:53:38.074Z,0.70
2023-02-21T15:56:20.750Z,0.50
2023-02-21T15:59:21.194Z,0.60
2023-02-21T16:02:17.492Z,0.80
2023-02-21T16:04:47.044Z,0.50
2023-02-21T16:07:22.381Z,0.60
2023-02-21T16:09:52.001Z,0.80
2023-02-21T16:12:28.671Z,0.70
2023-02-21T16:15:00.144Z,0.50
2023-02-21T16:17:32.205Z,0.70
2023-02-21T16:20:02.455Z,0.53
2023-02-21T16:22:43.133Z,0.47
2023-02-21T16:25:24.718Z,0.70
2023-02-21T16:27:54.333Z,0.57
2023-02-21T16:30:25.194Z,0.53
2023-02-21T16:32:54.360Z,0.50
2023-02-21T16:35:24.394Z,0.53
2023-02-21T16:37:54.845Z,0.70
2023-02-21T16:40:25.035Z,0.80
2023-02-21T16:42:53.897Z,0.80
2023-02-21T16:45:23.971Z,1.20
2023-02-21T16:47:56.704Z,0.80
2023-02-21T16:50:29.180Z,0.77
2023-02-21T16:52:56.805Z,0.60
2023-02-21T16:55:24.413Z,0.80
2023-02-21T16:57:54.545Z,0.70
2023-02-21T17:00:23.589Z,0.90
2023-02-21T17:02:52.028Z,1.10
2023-02-21T17:05:21.442Z,0.93
2023-02-21T17:07:49.736Z,0.97
2023-02-21T17:10:17.511Z,1.97
2023-02-21T17:12:45.189Z,2.93
2023-02-21T17:15:13.653Z,2.60
2023-02-21T17:17:46.443Z,3.10
2023-02-21T17:20:19.944Z,3.10
2023-02-21T17:22:48.328Z,2.53
2023-02-21T17:25:16.818Z,2.60
2023-02-21T17:27:44.888Z,2.43
2023-02-21T17:30:13.805Z,2.27
2023-02-21T17:32:43.693Z,2.17
2023-02-21T17:35:13.469Z,2.83
2023-02-21T17:37:41.161Z,2.40
2023-02-21T17:40:09.737Z,2.30
2023-02-21T17:42:37.449Z,2.33
2023-02-21T17:45:05.877Z,2.47
2023-02-21T17:47:35.256Z,2.40
2023-02-21T17:50:05.064Z,2.40
2023-02-21T17:52:33.284Z,2.33
2023-02-21T17:55:02.627Z,2.37
2023-02-21T17:57:35.683Z,3.00
2023-02-21T18:00:04.550Z,2.30
2023-02-21T18:02:32.144Z,3.00
2023-02-21T18:05:00.934Z,2.97
2023-02-21T18:07:32.620Z,3.87
2023-02-21T18:10:00.857Z,2.93
2023-02-21T18:12:28.451Z,2.83
2023-02-21T18:14:56.248Z,3.00
2023-02-21T18:17:24.007Z,3.27
2023-02-21T18:19:51.958Z,3.20
2023-02-21T18:22:19.688Z,2.70
2023-02-21T18:24:48.668Z,2.90
2023-02-21T18:27:16.757Z,3.03
2023-02-21T18:29:44.374Z,3.20
2023-02-21T18:32:12.051Z,2.90
2023-02-21T18:34:39.844Z,2.77
2023-02-21T18:37:08.127Z,6.80
2023-02-21T18:39:35.725Z,3.43
2023-02-21T18:42:04.780Z,4.10
2023-02-21T18:44:33.918Z,3.30
2023-02-21T18:47:02.260Z,3.47
2023-02-21T18:49:33.917Z,3.73
2023-02-21T18:52:03.806Z,3.93
2023-02-21T18:54:31.463Z,3.33
2023-02-21T18:56:59.210Z,3.67
2023-02-21T18:59:28.413Z,3.70
2023-02-21T19:01:56.691Z,3.77
2023-02-21T19:04:24.338Z,3.90
2023-02-21T19:06:51.926Z,4.23
2023-02-21T19:09:19.777Z,3.93
2023-02-21T19:11:47.362Z,4.27
2023-02-21T19:14:14.991Z,4.53
2023-02-21T19:16:44.034Z,3.97
2023-02-21T19:19:11.707Z,4.33
2023-02-21T19:21:39.315Z,3.97
2023-02-21T19:24:07.035Z,4.30
2023-02-21T19:26:34.775Z,4.90
2023-02-21T19:29:02.373Z,4.90
2023-02-21T19:31:30.326Z,5.00
2023-02-21T19:33:59.375Z,4.60
2023-02-21T19:36:27.241Z,4.70
2023-02-21T19:38:55.029Z,4.80
2023-02-21T19:41:22.811Z,4.80
2023-02-21T19:43:50.397Z,4.73
2023-02-21T19:46:22.872Z,4.63
2023-02-21T19:48:50.673Z,4.80
2023-02-21T19:51:22.276Z,4.80
2023-02-21T19:53:49.913Z,5.60
2023-02-21T19:56:17.796Z,6.27
2023-02-21T19:58:47.162Z,7.27
2023-02-21T20:01:15.580Z,6.43
2023-02-21T20:03:44.325Z,6.13
2023-02-21T20:06:11.981Z,6.67
2023-02-21T20:08:41.019Z,7.30
2023-02-21T20:11:08.660Z,6.70
2023-02-21T20:13:36.937Z,6.93
2023-02-21T20:16:04.819Z,6.90
2023-02-21T20:18:32.766Z,7.80
2023-02-21T20:21:00.355Z,7.60
2023-02-21T20:23:28.004Z,7.00
2023-02-21T20:25:56.986Z,7.27
2023-02-21T20:28:24.612Z,6.77
2023-02-21T20:30:52.313Z,7.87
2023-02-21T20:33:20.724Z,7.83
2023-02-21T20:35:48.381Z,7.27
2023-02-21T20:38:16.028Z,7.73
2023-02-21T20:40:43.601Z,7.47
2023-02-21T20:43:13.241Z,8.10
2023-02-21T20:45:40.889Z,8.30
2023-02-21T20:48:10.949Z,10.17
2023-02-21T20:50:41.555Z,8.53
2023-02-21T20:53:10.168Z,7.20
2023-02-21T20:55:38.313Z,6.97
2023-02-21T20:58:06.789Z,7.37
2023-02-21T21:00:37.739Z,6.70
2023-02-21T21:03:06.486Z,6.93
2023-02-21T21:05:34.075Z,6.70
2023-02-21T21:08:01.716Z,6.27
2023-02-21T21:10:29.449Z,6.47
2023-02-21T21:12:57.658Z,6.40
2023-02-21T21:15:25.773Z,6.87
2023-02-21T21:17:54.960Z,6.57
2023-02-21T21:20:24.439Z,7.23
2023-02-21T21:22:52.042Z,5.90
2023-02-21T21:25:22.645Z,6.37
2023-02-21T21:27:50.359Z,5.83
2023-02-21T21:30:22.756Z,5.53
2023-02-21T21:32:50.685Z,5.67
2023-02-21T21:35:20.807Z,5.40
2023-02-21T21:37:49.705Z,5.37
2023-02-21T21:40:17.655Z,4.80
2023-02-21T21:42:46.369Z,5.40
2023-02-21T21:45:19.264Z,5.47
2023-02-21T21:47:48.735Z,4.83
2023-02-21T21:50:16.851Z,4.93
2023-02-21T21:52:51.252Z,5.50
2023-02-21T21:55:21.725Z,5.20
2023-02-21T21:57:53.247Z,5.10
2023-02-21T22:00:23.199Z,4.60
2023-02-21T22:02:52.162Z,5.17
2023-02-21T22:05:21.091Z,4.63
2023-02-21T22:07:52.131Z,5.37
2023-02-21T22:10:20.136Z,5.00
2023-02-21T22:12:49.978Z,4.80
2023-02-21T22:15:19.852Z,5.27
2023-02-21T22:17:48.061Z,5.00
2023-02-21T22:20:19.299Z,4.80
2023-02-21T22:22:49.679Z,4.90
2023-02-21T22:25:20.298Z,5.10
2023-02-21T22:27:48.936Z,4.50
2023-02-21T22:30:18.620Z,4.83
2023-02-21T22:32:48.116Z,4.40
2023-02-21T22:35:19.052Z,4.30
2023-02-21T22:37:48.320Z,4.97
2023-02-21T22:40:24.015Z,4.13
2023-02-21T22:42:54.361Z,4.50
2023-02-21T22:45:23.407Z,3.77
2023-02-21T22:47:52.487Z,4.43
2023-02-21T22:50:21.419Z,4.00
2023-02-21T22:52:52.367Z,4.60
2023-02-21T22:55:20.181Z,4.00
2023-02-21T22:57:47.881Z,4.47
2023-02-21T23:00:22.515Z,4.27
2023-02-21T23:02:51.931Z,4.37
2023-02-21T23:05:22.063Z,4.40
2023-02-21T23:07:51.475Z,4.20
2023-02-21T23:10:23.661Z,4.50
2023-02-21T23:12:52.838Z,3.80
2023-02-21T23:15:22.824Z,3.73
2023-02-21T23:17:51.946Z,3.97
2023-02-21T23:20:22.216Z,4.27
2023-02-21T23:22:51.813Z,3.60
2023-02-21T23:25:23.208Z,4.33
2023-02-21T23:27:52.675Z,3.77
2023-02-21T23:30:23.422Z,3.57
2023-02-21T23:32:52.705Z,3.77
2023-02-21T23:35:21.951Z,4.00
2023-02-21T23:37:53.269Z,3.60
2023-02-21T23:40:22.618Z,4.03
2023-02-21T23:42:52.380Z,3.80
2023-02-21T23:45:24.372Z,3.40
2023-02-21T23:47:53.067Z,3.50
2023-02-21T23:50:23.559Z,3.70
2023-02-21T23:52:53.232Z,3.60
2023-02-21T23:55:24.943Z,3.73
2023-02-21T23:57:53.727Z,3.70
